sensor_id;sensor_type;location;lat;lon;timestamp;pressure;altitude;pressure_sealevel;temperature;humidity
19777;BME280;10047;42.490;26.012;2024-03-17T00:01:42;133472.09;;;6.37;100.00
19777;BME280;10047;42.490;26.012;2024-03-17T00:04:07;133735.47;;;7.23;100.00
19777;BME280;10047;42.490;26.012;2024-03-17T00:06:33;133662.25;;;6.74;100.00
19777;BME280;10047;42.490;26.012;2024-03-17T00:08:59;133721.72;;;6.76;100.00
19777;BME280;10047;42.490;26.012;2024-03-17T00:11:26;133856.25;;;7.12;100.00
19777;BME280;10047;42.490;26.012;2024-03-17T00:13:51;134005.06;;;7.48;100.00
19777;BME280;10047;42.490;26.012;2024-03-17T00:16:17;133888.31;;;6.77;100.00
19777;BME280;10047;42.490;26.012;2024-03-17T00:18:44;133940.25;;;7.09;100.00
19777;BME280;10047;42.490;26.012;2024-03-17T00:21:11;133799.63;;;6.07;100.00
19777;BME280;10047;42.490;26.012;2024-03-17T00:23:37;133946.59;;;6.66;100.00
19777;BME280;10047;42.490;26.012;2024-03-17T00:26:03;134041.69;;;6.93;100.00
19777;BME280;10047;42.490;26.012;2024-03-17T00:28:28;133981.31;;;6.56;100.00
19777;BME280;10047;42.490;26.012;2024-03-17T00:30:54;133982.31;;;6.44;100.00
19777;BME280;10047;42.490;26.012;2024-03-17T00:33:19;134142.53;;;7.19;100.00
19777;BME280;10047;42.490;26.012;2024-03-17T00:35:45;133972.22;;;6.13;100.00
19777;BME280;10047;42.490;26.012;2024-03-17T00:38:10;134160.31;;;6.85;100.00
19777;BME280;10047;42.490;26.012;2024-03-17T00:40:39;134128.84;;;6.62;100.00
19777;BME280;10047;42.490;26.012;2024-03-17T00:43:10;134118.53;;;6.71;100.00
19777;BME280;10047;42.490;26.012;2024-03-17T00:45:36;134233.00;;;7.20;100.00
19777;BME280;10047;42.490;26.012;2024-03-17T00:48:02;134169.31;;;6.67;100.00
19777;BME280;10047;42.490;26.012;2024-03-17T00:50:28;134318.34;;;7.25;100.00
19777;BME280;10047;42.490;26.012;2024-03-17T00:52:54;134301.94;;;6.93;100.00
19777;BME280;10047;42.490;26.012;2024-03-17T00:55:20;134305.19;;;6.82;100.00
19777;BME280;10047;42.490;26.012;2024-03-17T00:57:45;134287.03;;;6.57;100.00
19777;BME280;10047;42.490;26.012;2024-03-17T01:00:11;134214.19;;;6.27;100.00
19777;BME280;10047;42.490;26.012;2024-03-17T01:02:37;134327.00;;;6.82;100.00
19777;BME280;10047;42.490;26.012;2024-03-17T01:05:03;134356.38;;;6.95;100.00
19777;BME280;10047;42.490;26.012;2024-03-17T01:07:33;134286.63;;;6.32;100.00
19777;BME280;10047;42.490;26.012;2024-03-17T01:09:59;134345.09;;;6.55;100.00
19777;BME280;10047;42.490;26.012;2024-03-17T01:12:25;134306.53;;;6.25;100.00
19777;BME280;10047;42.490;26.012;2024-03-17T01:14:51;134390.44;;;6.57;100.00
19777;BME280;10047;42.490;26.012;2024-03-17T01:17:16;134440.75;;;7.08;100.00
19777;BME280;10047;42.490;26.012;2024-03-17T01:19:44;134451.44;;;6.84;100.00
19777;BME280;10047;42.490;26.012;2024-03-17T01:22:09;134472.53;;;6.64;100.00
19777;BME280;10047;42.490;26.012;2024-03-17T01:24:35;134357.00;;;6.09;100.00
19777;BME280;10047;42.490;26.012;2024-03-17T01:27:00;134493.81;;;6.65;100.00
19777;BME280;10047;42.490;26.012;2024-03-17T01:29:26;134518.09;;;6.78;100.00
19777;BME280;10047;42.490;26.012;2024-03-17T01:31:52;134348.78;;;6.11;100.00
19777;BME280;10047;42.490;26.012;2024-03-17T01:34:21;134540.72;;;6.84;100.00
19777;BME280;10047;42.490;26.012;2024-03-17T01:36:47;134545.50;;;6.94;100.00
19777;BME280;10047;42.490;26.012;2024-03-17T01:39:12;134580.84;;;7.09;100.00
19777;BME280;10047;42.490;26.012;2024-03-17T01:41:38;134481.09;;;6.52;100.00
19777;BME280;10047;42.490;26.012;2024-03-17T01:44:04;134497.13;;;6.76;100.00
19777;BME280;10047;42.490;26.012;2024-03-17T01:46:30;134629.94;;;6.97;100.00
19777;BME280;10047;42.490;26.012;2024-03-17T01:48:55;134535.22;;;6.63;100.00
19777;BME280;10047;42.490;26.012;2024-03-17T01:51:21;134628.63;;;6.84;100.00
19777;BME280;10047;42.490;26.012;2024-03-17T01:53:48;134665.25;;;7.21;100.00
19777;BME280;10047;42.490;26.012;2024-03-17T01:56:16;134615.53;;;6.94;100.00
19777;BME280;10047;42.490;26.012;2024-03-17T01:58:44;134690.19;;;7.28;100.00
19777;BME280;10047;42.490;26.012;2024-03-17T02:01:09;134730.44;;;7.39;100.00
19777;BME280;10047;42.490;26.012;2024-03-17T02:03:35;134687.47;;;7.11;100.00
19777;BME280;10047;42.490;26.012;2024-03-17T02:06:01;134597.31;;;6.51;100.00
19777;BME280;10047;42.490;26.012;2024-03-17T02:08:26;134574.56;;;6.64;100.00
19777;BME280;10047;42.490;26.012;2024-03-17T02:10:53;134646.78;;;6.79;100.00
19777;BME280;10047;42.490;26.012;2024-03-17T02:13:20;134736.88;;;6.98;100.00
19777;BME280;10047;42.490;26.012;2024-03-17T02:15:46;134590.81;;;6.47;100.00
19777;BME280;10047;42.490;26.012;2024-03-17T02:18:11;134735.34;;;7.17;100.00
19777;BME280;10047;42.490;26.012;2024-03-17T02:20:37;134759.69;;;7.35;100.00
19777;BME280;10047;42.490;26.012;2024-03-17T02:23:21;134777.59;;;7.21;100.00
19777;BME280;10047;42.490;26.012;2024-03-17T02:25:46;134585.50;;;6.26;100.00
19777;BME280;10047;42.490;26.012;2024-03-17T02:28:13;134643.72;;;6.63;100.00
19777;BME280;10047;42.490;26.012;2024-03-17T02:30:38;134791.25;;;7.14;100.00
19777;BME280;10047;42.490;26.012;2024-03-17T02:33:04;134668.13;;;6.44;100.00
19777;BME280;10047;42.490;26.012;2024-03-17T02:35:29;134793.47;;;7.33;100.00
19777;BME280;10047;42.490;26.012;2024-03-17T02:37:55;134649.47;;;6.06;100.00
19777;BME280;10047;42.490;26.012;2024-03-17T02:40:20;134747.16;;;6.67;100.00
19777;BME280;10047;42.490;26.012;2024-03-17T02:42:45;134821.19;;;7.47;100.00
19777;BME280;10047;42.490;26.012;2024-03-17T02:45:11;134760.47;;;6.83;100.00
19777;BME280;10047;42.490;26.012;2024-03-17T02:47:38;134885.41;;;7.28;100.00
19777;BME280;10047;42.490;26.012;2024-03-17T02:50:04;134859.16;;;7.57;100.00
19777;BME280;10047;42.490;26.012;2024-03-17T02:52:29;134911.81;;;7.16;100.00
19777;BME280;10047;42.490;26.012;2024-03-17T02:54:55;134872.97;;;6.77;100.00
19777;BME280;10047;42.490;26.012;2024-03-17T02:57:22;134915.69;;;7.47;100.00
19777;BME280;10047;42.490;26.012;2024-03-17T02:59:50;134916.34;;;7.18;100.00
19777;BME280;10047;42.490;26.012;2024-03-17T03:02:15;134850.03;;;6.86;100.00
19777;BME280;10047;42.490;26.012;2024-03-17T03:04:41;134858.25;;;6.39;100.00
19777;BME280;10047;42.490;26.012;2024-03-17T03:07:06;134836.16;;;6.72;100.00
19777;BME280;10047;42.490;26.012;2024-03-17T03:09:32;134897.28;;;7.40;100.00
19777;BME280;10047;42.490;26.012;2024-03-17T03:11:58;134850.88;;;6.88;100.00
19777;BME280;10047;42.490;26.012;2024-03-17T03:14:24;134795.88;;;6.79;100.00
19777;BME280;10047;42.490;26.012;2024-03-17T03:16:50;134949.22;;;7.24;100.00
19777;BME280;10047;42.490;26.012;2024-03-17T03:19:16;134995.72;;;7.49;100.00
19777;BME280;10047;42.490;26.012;2024-03-17T03:21:41;134915.50;;;6.58;100.00
19777;BME280;10047;42.490;26.012;2024-03-17T03:24:07;134886.28;;;7.16;100.00
19777;BME280;10047;42.490;26.012;2024-03-17T03:26:32;134926.00;;;7.02;100.00
19777;BME280;10047;42.490;26.012;2024-03-17T03:28:58;135004.53;;;7.31;100.00
19777;BME280;10047;42.490;26.012;2024-03-17T03:31:24;135017.56;;;7.66;100.00
19777;BME280;10047;42.490;26.012;2024-03-17T03:33:49;134821.41;;;6.48;100.00
19777;BME280;10047;42.490;26.012;2024-03-17T03:36:15;135002.59;;;7.20;100.00
19777;BME280;10047;42.490;26.012;2024-03-17T03:38:44;134924.59;;;7.07;100.00
19777;BME280;10047;42.490;26.012;2024-03-17T03:41:16;134869.88;;;6.43;100.00
19777;BME280;10047;42.490;26.012;2024-03-17T03:43:42;134847.50;;;6.59;100.00
19777;BME280;10047;42.490;26.012;2024-03-17T03:46:08;135099.59;;;7.61;100.00
19777;BME280;10047;42.490;26.012;2024-03-17T03:48:34;135070.06;;;7.61;100.00
19777;BME280;10047;42.490;26.012;2024-03-17T03:51:06;135120.91;;;7.62;100.00
19777;BME280;10047;42.490;26.012;2024-03-17T03:53:32;135138.78;;;7.58;100.00
19777;BME280;10047;42.490;26.012;2024-03-17T03:55:58;135040.03;;;7.37;100.00
19777;BME280;10047;42.490;26.012;2024-03-17T03:58:29;135032.34;;;7.28;100.00
19777;BME280;10047;42.490;26.012;2024-03-17T04:00:55;135063.78;;;7.79;100.00
19777;BME280;10047;42.490;26.012;2024-03-17T04:03:21;134989.53;;;7.08;100.00
19777;BME280;10047;42.490;26.012;2024-03-17T04:05:47;135165.75;;;7.48;100.00
19777;BME280;10047;42.490;26.012;2024-03-17T04:08:13;134987.84;;;6.91;100.00
19777;BME280;10047;42.490;26.012;2024-03-17T04:10:38;135114.63;;;7.57;100.00
19777;BME280;10047;42.490;26.012;2024-03-17T04:13:04;135071.50;;;7.07;100.00
19777;BME280;10047;42.490;26.012;2024-03-17T04:15:29;135008.78;;;6.80;100.00
19777;BME280;10047;42.490;26.012;2024-03-17T04:17:54;135073.19;;;6.96;100.00
19777;BME280;10047;42.490;26.012;2024-03-17T04:20:20;135152.59;;;6.99;100.00
19777;BME280;10047;42.490;26.012;2024-03-17T04:22:46;135141.22;;;6.90;100.00
19777;BME280;10047;42.490;26.012;2024-03-17T04:25:13;135131.41;;;7.34;100.00
19777;BME280;10047;42.490;26.012;2024-03-17T04:27:39;135043.66;;;6.69;100.00
19777;BME280;10047;42.490;26.012;2024-03-17T04:30:06;135079.38;;;6.69;100.00
19777;BME280;10047;42.490;26.012;2024-03-17T04:32:32;135095.88;;;7.01;100.00
19777;BME280;10047;42.490;26.012;2024-03-17T04:34:58;135179.31;;;7.27;100.00
19777;BME280;10047;42.490;26.012;2024-03-17T04:37:23;135019.03;;;6.98;100.00
19777;BME280;10047;42.490;26.012;2024-03-17T04:39:50;135094.13;;;6.80;100.00
19777;BME280;10047;42.490;26.012;2024-03-17T04:42:16;135264.41;;;7.11;100.00
19777;BME280;10047;42.490;26.012;2024-03-17T04:44:43;135192.41;;;7.31;100.00
19777;BME280;10047;42.490;26.012;2024-03-17T04:47:09;135100.16;;;7.18;100.00
19777;BME280;10047;42.490;26.012;2024-03-17T04:49:40;135126.28;;;7.21;100.00
19777;BME280;10047;42.490;26.012;2024-03-17T04:52:07;135268.75;;;7.45;100.00
19777;BME280;10047;42.490;26.012;2024-03-17T04:54:34;134953.72;;;6.44;100.00
19777;BME280;10047;42.490;26.012;2024-03-17T04:56:59;135259.44;;;7.83;100.00
19777;BME280;10047;42.490;26.012;2024-03-17T04:59:25;135270.53;;;7.94;100.00
19777;BME280;10047;42.490;26.012;2024-03-17T05:01:51;135135.34;;;7.16;100.00
19777;BME280;10047;42.490;26.012;2024-03-17T05:04:17;135218.84;;;7.82;100.00
19777;BME280;10047;42.490;26.012;2024-03-17T05:06:43;135294.66;;;7.76;100.00
19777;BME280;10047;42.490;26.012;2024-03-17T05:09:18;135357.41;;;7.75;100.00
19777;BME280;10047;42.490;26.012;2024-03-17T05:11:43;135290.66;;;7.54;100.00
19777;BME280;10047;42.490;26.012;2024-03-17T05:14:09;135328.19;;;7.98;100.00
19777;BME280;10047;42.490;26.012;2024-03-17T05:16:35;135203.50;;;7.46;100.00
19777;BME280;10047;42.490;26.012;2024-03-17T05:19:00;135317.41;;;8.04;100.00
19777;BME280;10047;42.490;26.012;2024-03-17T05:21:26;135203.50;;;7.64;100.00
19777;BME280;10047;42.490;26.012;2024-03-17T05:23:55;135341.25;;;8.01;100.00
19777;BME280;10047;42.490;26.012;2024-03-17T05:26:20;135241.84;;;7.64;100.00
19777;BME280;10047;42.490;26.012;2024-03-17T05:28:46;135339.56;;;8.43;100.00
19777;BME280;10047;42.490;26.012;2024-03-17T05:31:11;135432.78;;;8.48;100.00
19777;BME280;10047;42.490;26.012;2024-03-17T05:33:40;135307.44;;;8.30;100.00
19777;BME280;10047;42.490;26.012;2024-03-17T05:36:05;135303.44;;;8.40;100.00
19777;BME280;10047;42.490;26.012;2024-03-17T05:38:31;135317.84;;;8.79;100.00
19777;BME280;10047;42.490;26.012;2024-03-17T05:40:58;135495.63;;;9.55;100.00
19777;BME280;10047;42.490;26.012;2024-03-17T05:43:28;135495.53;;;9.20;100.00
19777;BME280;10047;42.490;26.012;2024-03-17T05:45:57;135543.34;;;9.77;100.00
19777;BME280;10047;42.490;26.012;2024-03-17T05:48:22;135387.84;;;9.29;100.00
19777;BME280;10047;42.490;26.012;2024-03-17T05:50:49;135589.81;;;10.24;100.00
19777;BME280;10047;42.490;26.012;2024-03-17T05:53:16;135488.16;;;10.03;100.00
19777;BME280;10047;42.490;26.012;2024-03-17T05:55:43;135566.19;;;9.73;100.00
19777;BME280;10047;42.490;26.012;2024-03-17T05:58:09;135654.38;;;10.01;100.00
19777;BME280;10047;42.490;26.012;2024-03-17T06:00:35;135727.88;;;10.22;100.00
19777;BME280;10047;42.490;26.012;2024-03-17T06:03:02;135710.22;;;10.56;100.00
19777;BME280;10047;42.490;26.012;2024-03-17T06:05:31;135741.63;;;9.96;100.00
19777;BME280;10047;42.490;26.012;2024-03-17T06:07:57;135878.97;;;11.25;100.00
19777;BME280;10047;42.490;26.012;2024-03-17T06:10:22;135994.47;;;11.03;100.00
19777;BME280;10047;42.490;26.012;2024-03-17T06:12:50;135938.00;;;10.09;100.00
19777;BME280;10047;42.490;26.012;2024-03-17T06:15:17;135918.91;;;9.73;100.00
19777;BME280;10047;42.490;26.012;2024-03-17T06:17:43;135869.34;;;9.94;100.00
19777;BME280;10047;42.490;26.012;2024-03-17T06:20:08;136111.84;;;11.06;100.00
19777;BME280;10047;42.490;26.012;2024-03-17T06:22:39;136143.00;;;11.01;100.00
19777;BME280;10047;42.490;26.012;2024-03-17T06:25:05;136140.75;;;10.68;100.00
19777;BME280;10047;42.490;26.012;2024-03-17T06:27:32;136086.47;;;10.96;100.00
19777;BME280;10047;42.490;26.012;2024-03-17T06:29:59;136216.34;;;11.81;100.00
19777;BME280;10047;42.490;26.012;2024-03-17T06:32:26;136036.34;;;10.65;100.00
19777;BME280;10047;42.490;26.012;2024-03-17T06:34:51;136292.47;;;11.53;100.00
19777;BME280;10047;42.490;26.012;2024-03-17T06:37:17;136266.03;;;11.15;100.00
19777;BME280;10047;42.490;26.012;2024-03-17T06:39:45;136139.66;;;10.59;100.00
19777;BME280;10047;42.490;26.012;2024-03-17T06:42:10;136131.06;;;10.48;100.00
19777;BME280;10047;42.490;26.012;2024-03-17T06:44:37;136001.06;;;10.18;100.00
19777;BME280;10047;42.490;26.012;2024-03-17T06:47:02;136134.84;;;11.29;100.00
19777;BME280;10047;42.490;26.012;2024-03-17T06:49:28;136116.25;;;11.31;100.00
19777;BME280;10047;42.490;26.012;2024-03-17T06:51:53;136249.53;;;12.17;100.00
19777;BME280;10047;42.490;26.012;2024-03-17T06:54:19;136291.28;;;12.55;100.00
19777;BME280;10047;42.490;26.012;2024-03-17T06:56:50;135818.22;;;12.08;100.00
19777;BME280;10047;42.490;26.012;2024-03-17T06:59:17;135393.16;;;12.60;100.00
19777;BME280;10047;42.490;26.012;2024-03-17T07:01:42;135357.47;;;11.96;100.00
19777;BME280;10047;42.490;26.012;2024-03-17T07:04:10;135532.44;;;11.66;100.00
19777;BME280;10047;42.490;26.012;2024-03-17T07:06:36;135530.81;;;11.59;100.00
19777;BME280;10047;42.490;26.012;2024-03-17T07:09:02;135777.31;;;12.29;100.00
19777;BME280;10047;42.490;26.012;2024-03-17T07:11:27;135873.78;;;12.42;100.00
19777;BME280;10047;42.490;26.012;2024-03-17T07:13:53;135887.81;;;12.26;100.00
19777;BME280;10047;42.490;26.012;2024-03-17T07:16:18;136051.59;;;13.49;100.00
19777;BME280;10047;42.490;26.012;2024-03-17T07:18:46;136127.91;;;13.78;100.00
19777;BME280;10047;42.490;26.012;2024-03-17T07:21:11;135910.88;;;13.03;100.00
19777;BME280;10047;42.490;26.012;2024-03-17T07:23:37;136017.84;;;13.88;100.00
19777;BME280;10047;42.490;26.012;2024-03-17T07:26:04;135503.31;;;12.74;100.00
19777;BME280;10047;42.490;26.012;2024-03-17T07:28:32;134411.03;;;13.25;100.00
19777;BME280;10047;42.490;26.012;2024-03-17T07:30:59;133764.41;;;13.13;100.00
19777;BME280;10047;42.490;26.012;2024-03-17T07:33:27;133221.88;;;12.83;100.00
19777;BME280;10047;42.490;26.012;2024-03-17T07:35:55;132755.69;;;12.79;100.00
19777;BME280;10047;42.490;26.012;2024-03-17T07:38:24;132802.44;;;13.87;100.00
19777;BME280;10047;42.490;26.012;2024-03-17T07:41:02;131733.19;;;13.39;100.00
19777;BME280;10047;42.490;26.012;2024-03-17T07:43:29;130686.38;;;12.38;100.00
19777;BME280;10047;42.490;26.012;2024-03-17T07:46:06;130644.22;;;12.87;100.00
19777;BME280;10047;42.490;26.012;2024-03-17T07:48:35;130742.78;;;13.81;100.00
19777;BME280;10047;42.490;26.012;2024-03-17T07:51:09;130152.97;;;13.35;100.00
19777;BME280;10047;42.490;26.012;2024-03-17T07:53:39;129465.22;;;13.79;100.00
19777;BME280;10047;42.490;26.012;2024-03-17T07:56:06;128836.63;;;13.58;100.00
19777;BME280;10047;42.490;26.012;2024-03-17T07:58:35;128249.72;;;13.87;100.00
19777;BME280;10047;42.490;26.012;2024-03-17T08:01:04;127649.09;;;14.11;100.00
19777;BME280;10047;42.490;26.012;2024-03-17T08:03:31;127388.81;;;15.20;100.00
19777;BME280;10047;42.490;26.012;2024-03-17T08:06:02;126527.72;;;14.40;100.00
19777;BME280;10047;42.490;26.012;2024-03-17T08:08:28;125913.41;;;14.29;100.00
19777;BME280;10047;42.490;26.012;2024-03-17T08:10:54;125946.63;;;14.62;100.00
19777;BME280;10047;42.490;26.012;2024-03-17T08:13:20;125454.59;;;14.53;100.00
19777;BME280;10047;42.490;26.012;2024-03-17T08:15:54;125282.22;;;14.10;100.00
19777;BME280;10047;42.490;26.012;2024-03-17T08:18:20;124531.50;;;13.89;100.00
19777;BME280;10047;42.490;26.012;2024-03-17T08:20:45;124694.50;;;14.90;100.00
19777;BME280;10047;42.490;26.012;2024-03-17T08:23:12;124116.41;;;14.17;100.00
19777;BME280;10047;42.490;26.012;2024-03-17T08:25:37;124378.31;;;15.26;100.00
19777;BME280;10047;42.490;26.012;2024-03-17T08:28:03;125740.25;;;15.35;100.00
19777;BME280;10047;42.490;26.012;2024-03-17T08:30:29;125316.81;;;15.25;100.00
19777;BME280;10047;42.490;26.012;2024-03-17T08:32:56;124672.56;;;14.17;100.00
19777;BME280;10047;42.490;26.012;2024-03-17T08:35:21;124681.66;;;14.92;100.00
19777;BME280;10047;42.490;26.012;2024-03-17T08:37:47;124491.94;;;14.93;100.00
19777;BME280;10047;42.490;26.012;2024-03-17T08:40:12;123741.63;;;14.20;100.00
19777;BME280;10047;42.490;26.012;2024-03-17T08:42:39;123907.28;;;14.94;100.00
19777;BME280;10047;42.490;26.012;2024-03-17T08:45:05;123138.16;;;15.48;100.00
19777;BME280;10047;42.490;26.012;2024-03-17T08:47:30;122704.16;;;15.27;100.00
19777;BME280;10047;42.490;26.012;2024-03-17T08:49:55;121970.69;;;14.27;100.00
19777;BME280;10047;42.490;26.012;2024-03-17T08:52:21;122256.25;;;15.21;100.00
19777;BME280;10047;42.490;26.012;2024-03-17T08:54:47;122755.19;;;15.60;100.00
19777;BME280;10047;42.490;26.012;2024-03-17T08:57:13;121546.06;;;15.05;100.00
19777;BME280;10047;42.490;26.012;2024-03-17T08:59:38;121394.09;;;15.56;100.00
19777;BME280;10047;42.490;26.012;2024-03-17T09:02:04;121045.88;;;15.71;100.00
19777;BME280;10047;42.490;26.012;2024-03-17T09:04:31;120808.03;;;15.30;100.00
19777;BME280;10047;42.490;26.012;2024-03-17T09:06:57;120879.47;;;15.87;100.00
19777;BME280;10047;42.490;26.012;2024-03-17T09:09:22;119021.13;;;15.31;100.00
19777;BME280;10047;42.490;26.012;2024-03-17T09:11:48;118791.59;;;15.96;100.00
19777;BME280;10047;42.490;26.012;2024-03-17T09:14:14;118330.22;;;15.90;100.00
19777;BME280;10047;42.490;26.012;2024-03-17T09:16:39;118715.16;;;16.27;100.00
19777;BME280;10047;42.490;26.012;2024-03-17T09:19:05;118044.69;;;16.41;100.00
19777;BME280;10047;42.490;26.012;2024-03-17T09:21:30;117338.22;;;16.20;100.00
19777;BME280;10047;42.490;26.012;2024-03-17T09:23:56;116725.59;;;15.78;100.00
19777;BME280;10047;42.490;26.012;2024-03-17T09:26:21;116636.56;;;15.33;100.00
19777;BME280;10047;42.490;26.012;2024-03-17T09:28:47;116739.91;;;16.31;100.00
19777;BME280;10047;42.490;26.012;2024-03-17T09:31:13;115133.31;;;16.71;100.00
19777;BME280;10047;42.490;26.012;2024-03-17T09:33:39;114722.91;;;16.37;100.00
19777;BME280;10047;42.490;26.012;2024-03-17T09:36:08;116581.41;;;16.41;100.00
19777;BME280;10047;42.490;26.012;2024-03-17T09:38:36;116013.41;;;15.80;100.00
19777;BME280;10047;42.490;26.012;2024-03-17T09:41:02;115662.13;;;17.10;100.00
19777;BME280;10047;42.490;26.012;2024-03-17T09:43:37;114066.59;;;15.59;100.00
19777;BME280;10047;42.490;26.012;2024-03-17T09:46:05;113546.66;;;14.36;100.00
19777;BME280;10047;42.490;26.012;2024-03-17T09:48:31;113749.78;;;16.17;100.00
19777;BME280;10047;42.490;26.012;2024-03-17T09:50:58;112322.63;;;16.12;100.00
19777;BME280;10047;42.490;26.012;2024-03-17T09:53:32;111653.03;;;16.65;100.00
19777;BME280;10047;42.490;26.012;2024-03-17T09:56:06;110739.84;;;15.84;100.00
19777;BME280;10047;42.490;26.012;2024-03-17T09:58:33;111109.72;;;17.55;100.00
19777;BME280;10047;42.490;26.012;2024-03-17T10:00:59;111014.31;;;15.46;100.00
19777;BME280;10047;42.490;26.012;2024-03-17T10:03:45;111451.75;;;16.50;100.00
19777;BME280;10047;42.490;26.012;2024-03-17T10:06:25;111131.50;;;14.81;100.00
19777;BME280;10047;42.490;26.012;2024-03-17T10:08:55;111436.31;;;16.50;100.00
19777;BME280;10047;42.490;26.012;2024-03-17T10:11:25;110924.94;;;16.04;100.00
19777;BME280;10047;42.490;26.012;2024-03-17T10:14:01;110958.69;;;17.50;100.00
19777;BME280;10047;42.490;26.012;2024-03-17T10:16:29;110484.31;;;14.80;100.00
19777;BME280;10047;42.490;26.012;2024-03-17T10:19:14;110666.25;;;15.51;100.00
19777;BME280;10047;42.490;26.012;2024-03-17T10:21:44;111058.63;;;17.31;100.00
19777;BME280;10047;42.490;26.012;2024-03-17T10:26:47;109197.31;;;16.91;100.00
19777;BME280;10047;42.490;26.012;2024-03-17T10:29:32;109184.06;;;17.70;100.00
19777;BME280;10047;42.490;26.012;2024-03-17T10:32:12;107851.22;;;17.09;100.00
19777;BME280;10047;42.490;26.012;2024-03-17T10:34:38;107557.75;;;16.97;100.00
19777;BME280;10047;42.490;26.012;2024-03-17T10:37:17;107076.78;;;18.07;100.00
19777;BME280;10047;42.490;26.012;2024-03-17T10:39:46;106503.38;;;17.84;100.00
19777;BME280;10047;42.490;26.012;2024-03-17T10:42:13;105871.03;;;16.53;100.00
19777;BME280;10047;42.490;26.012;2024-03-17T10:44:42;105759.25;;;17.08;100.00
19777;BME280;10047;42.490;26.012;2024-03-17T10:47:21;105097.25;;;15.49;100.00
19777;BME280;10047;42.490;26.012;2024-03-17T10:49:47;105325.81;;;16.72;100.00
19777;BME280;10047;42.490;26.012;2024-03-17T10:52:18;105313.03;;;17.56;100.00
19777;BME280;10047;42.490;26.012;2024-03-17T10:54:48;105038.88;;;17.44;100.00
19777;BME280;10047;42.490;26.012;2024-03-17T11:00:03;104469.31;;;17.52;100.00
19777;BME280;10047;42.490;26.012;2024-03-17T11:02:31;104081.44;;;15.63;100.00
19777;BME280;10047;42.490;26.012;2024-03-17T11:05:25;104247.09;;;18.37;100.00
19777;BME280;10047;42.490;26.012;2024-03-17T11:07:52;103835.16;;;17.40;100.00
19777;BME280;10047;42.490;26.012;2024-03-17T11:10:28;103889.50;;;17.80;100.00
19777;BME280;10047;42.490;26.012;2024-03-17T11:12:55;103760.47;;;17.26;100.00
19777;BME280;10047;42.490;26.012;2024-03-17T11:17:53;103535.75;;;17.06;100.00
19777;BME280;10047;42.490;26.012;2024-03-17T11:20:27;103427.53;;;16.26;100.00
19777;BME280;10047;42.490;26.012;2024-03-17T11:23:00;103513.50;;;17.21;100.00
19777;BME280;10047;42.490;26.012;2024-03-17T11:27:54;103336.88;;;17.32;100.00
19777;BME280;10047;42.490;26.012;2024-03-17T11:30:42;103289.69;;;17.43;100.00
19777;BME280;10047;42.490;26.012;2024-03-17T11:39:07;103079.03;;;16.79;100.00
19777;BME280;10047;42.490;26.012;2024-03-17T11:41:45;103083.13;;;17.21;100.00
19777;BME280;10047;42.490;26.012;2024-03-17T11:47:01;103106.78;;;17.80;100.00
19777;BME280;10047;42.490;26.012;2024-03-17T11:49:30;103038.94;;;17.86;100.00
19777;BME280;10047;42.490;26.012;2024-03-17T11:52:23;102978.34;;;18.34;100.00
19777;BME280;10047;42.490;26.012;2024-03-17T11:54:48;102840.16;;;18.28;100.00
19777;BME280;10047;42.490;26.012;2024-03-17T11:57:20;102728.56;;;17.65;100.00
19777;BME280;10047;42.490;26.012;2024-03-17T11:59:48;102755.84;;;17.02;100.00
19777;BME280;10047;42.490;26.012;2024-03-17T12:02:25;102729.53;;;16.76;100.00
19777;BME280;10047;42.490;26.012;2024-03-17T12:05:01;102811.63;;;17.78;100.00
19777;BME280;10047;42.490;26.012;2024-03-17T12:07:27;102695.28;;;17.52;100.00
19777;BME280;10047;42.490;26.012;2024-03-17T12:09:55;102609.25;;;16.23;100.00
19777;BME280;10047;42.490;26.012;2024-03-17T12:12:26;102652.81;;;16.35;100.00
19777;BME280;10047;42.490;26.012;2024-03-17T12:15:01;102775.16;;;16.41;100.00
19777;BME280;10047;42.490;26.012;2024-03-17T12:17:27;102803.41;;;16.48;100.00
19777;BME280;10047;42.490;26.012;2024-03-17T12:19:53;102860.84;;;16.26;100.00
19777;BME280;10047;42.490;26.012;2024-03-17T12:22:23;102892.53;;;16.30;100.00
19777;BME280;10047;42.490;26.012;2024-03-17T12:24:55;102983.28;;;16.26;100.00
19777;BME280;10047;42.490;26.012;2024-03-17T12:27:25;103014.06;;;16.35;100.00
19777;BME280;10047;42.490;26.012;2024-03-17T12:29:52;102921.72;;;16.06;100.00
19777;BME280;10047;42.490;26.012;2024-03-17T12:32:25;102847.44;;;15.26;100.00
19777;BME280;10047;42.490;26.012;2024-03-17T12:34:55;103063.72;;;16.25;100.00
19777;BME280;10047;42.490;26.012;2024-03-17T12:37:23;103055.19;;;15.97;100.00
19777;BME280;10047;42.490;26.012;2024-03-17T12:39:51;103087.56;;;16.86;100.00
19777;BME280;10047;42.490;26.012;2024-03-17T12:42:23;103077.81;;;18.51;100.00
19777;BME280;10047;42.490;26.012;2024-03-17T12:44:50;102950.22;;;18.84;100.00
19777;BME280;10047;42.490;26.012;2024-03-17T12:47:17;102790.69;;;19.12;100.00
19777;BME280;10047;42.490;26.012;2024-03-17T12:57:45;102675.66;;;16.67;100.00
19777;BME280;10047;42.490;26.012;2024-03-17T13:00:29;102651.13;;;17.16;100.00
19777;BME280;10047;42.490;26.012;2024-03-17T13:03:02;102624.13;;;17.51;100.00
19777;BME280;10047;42.490;26.012;2024-03-17T13:05:31;102493.69;;;16.99;100.00